ASA61 PAJN-PAYA
Flight info
| Callsign | ASA61 |
|---|---|
| Flight time | 0h 37m |
| Altitude | 26000 |
| Route | CHLKT2 FAKES YAK3 |
| Aircraft | B737/M-SDE3FGIRW/LB1 |
Departure
| Time | 2026-04-26 19:25 |
|---|---|
| Airport | Juneau International Airport (PAJN) |
Arrival
| Time | 2026-04-26 20:03 |
|---|---|
| Airport | Yakutat Airport (PAYA) |
| Time | Latitude | Longitude | Altitude | Speed | Heading |
|---|---|---|---|---|---|
| 2026-04-26 19:02 | 58.35872 | -134.58462 | 33 ft | 0 kts | 103° |
| 2026-04-26 19:17 | 58.35876 | -134.58505 | 33 ft | 4 kts | 93° |
| 2026-04-26 19:17 | 58.35877 | -134.58556 | 33 ft | 4 kts | 89° |
| 2026-04-26 19:18 | 58.35877 | -134.58597 | 33 ft | 4 kts | 104° |
| 2026-04-26 19:18 | 58.35890 | -134.58633 | 31 ft | 4 kts | 159° |
| 2026-04-26 19:18 | 58.35907 | -134.58641 | 32 ft | 0 kts | 173° |
| 2026-04-26 19:20 | 58.35889 | -134.58639 | 31 ft | 4 kts | 178° |
| 2026-04-26 19:20 | 58.35847 | -134.58638 | 33 ft | 9 kts | 179° |
| 2026-04-26 19:21 | 58.35783 | -134.58626 | 33 ft | 10 kts | 169° |
| 2026-04-26 19:21 | 58.35730 | -134.58515 | 33 ft | 14 kts | 107° |
| 2026-04-26 19:21 | 58.35702 | -134.58310 | 31 ft | 18 kts | 106° |
| 2026-04-26 19:21 | 58.35666 | -134.58057 | 33 ft | 21 kts | 104° |
| 2026-04-26 19:22 | 58.35625 | -134.57764 | 32 ft | 24 kts | 104° |
| 2026-04-26 19:22 | 58.35579 | -134.57440 | 33 ft | 26 kts | 104° |
| 2026-04-26 19:22 | 58.35531 | -134.57087 | 31 ft | 29 kts | 104° |
| 2026-04-26 19:22 | 58.35477 | -134.56708 | 33 ft | 30 kts | 104° |
| 2026-04-26 19:23 | 58.35423 | -134.56316 | 33 ft | 31 kts | 105° |
| 2026-04-26 19:23 | 58.35381 | -134.55996 | 33 ft | 23 kts | 103° |
| 2026-04-26 19:23 | 58.35353 | -134.55804 | 33 ft | 22 kts | 106° |
| 2026-04-26 19:23 | 58.35305 | -134.55460 | 33 ft | 15 kts | 106° |
| 2026-04-26 19:24 | 58.35252 | -134.55296 | 32 ft | 16 kts | 176° |
| 2026-04-26 19:24 | 58.35191 | -134.55326 | 33 ft | 13 kts | 210° |
| 2026-04-26 19:24 | 58.35400 | -134.56949 | 34 ft | 146 kts | 285° |
| 2026-04-26 19:25 | 58.35722 | -134.59247 | 234 ft | 200 kts | 285° |
| 2026-04-26 19:25 | 58.35847 | -134.60123 | 530 ft | 205 kts | 285° |
| 2026-04-26 19:25 | 58.36119 | -134.63642 | 2275 ft | 199 kts | 269° |
| 2026-04-26 19:25 | 58.36062 | -134.67372 | 3116 ft | 224 kts | 268° |
| 2026-04-26 19:26 | 58.36030 | -134.69367 | 3559 ft | 232 kts | 268° |
| 2026-04-26 19:26 | 58.36223 | -134.72442 | 4295 ft | 244 kts | 288° |
| 2026-04-26 19:26 | 58.36828 | -134.75541 | 5148 ft | 253 kts | 290° |
| 2026-04-26 19:26 | 58.37452 | -134.78711 | 6002 ft | 259 kts | 290° |
| 2026-04-26 19:27 | 58.38076 | -134.81963 | 6857 ft | 264 kts | 289° |
| 2026-04-26 19:27 | 58.38698 | -134.85268 | 7762 ft | 266 kts | 289° |
| 2026-04-26 19:27 | 58.39318 | -134.88616 | 8675 ft | 268 kts | 289° |
| 2026-04-26 19:27 | 58.39938 | -134.91995 | 9513 ft | 272 kts | 289° |
| 2026-04-26 19:28 | 58.40555 | -134.95385 | 10226 ft | 277 kts | 289° |
| 2026-04-26 19:28 | 58.41209 | -134.98992 | 10548 ft | 301 kts | 289° |
| 2026-04-26 19:28 | 58.41915 | -135.02908 | 10918 ft | 319 kts | 288° |
| 2026-04-26 19:28 | 58.42643 | -135.06958 | 11631 ft | 325 kts | 288° |
| 2026-04-26 19:29 | 58.43384 | -135.11058 | 12462 ft | 328 kts | 289° |
| 2026-04-26 19:29 | 58.44215 | -135.15136 | 13297 ft | 332 kts | 291° |
| 2026-04-26 19:29 | 58.45103 | -135.19241 | 14110 ft | 336 kts | 291° |
| 2026-04-26 19:29 | 58.46010 | -135.23382 | 14828 ft | 340 kts | 291° |
| 2026-04-26 19:30 | 58.46925 | -135.27569 | 15569 ft | 343 kts | 290° |
| 2026-04-26 19:30 | 58.47844 | -135.31799 | 16328 ft | 346 kts | 290° |
| 2026-04-26 19:30 | 58.48767 | -135.36081 | 17059 ft | 351 kts | 290° |
| 2026-04-26 19:30 | 58.49381 | -135.38950 | 17549 ft | 353 kts | 290° |
| 2026-04-26 19:31 | 58.50633 | -135.44816 | 18555 ft | 358 kts | 290° |
| 2026-04-26 19:31 | 58.51578 | -135.49256 | 19234 ft | 360 kts | 290° |
| 2026-04-26 19:31 | 58.52504 | -135.53622 | 20094 ft | 356 kts | 290° |
| 2026-04-26 19:31 | 58.53437 | -135.58026 | 21066 ft | 349 kts | 290° |
| 2026-04-26 19:32 | 58.54342 | -135.62310 | 21975 ft | 345 kts | 290° |
| 2026-04-26 19:32 | 58.55224 | -135.66499 | 22803 ft | 343 kts | 291° |
| 2026-04-26 19:32 | 58.56112 | -135.70723 | 23694 ft | 339 kts | 291° |
| 2026-04-26 19:32 | 58.56982 | -135.74877 | 24576 ft | 330 kts | 292° |
| 2026-04-26 19:33 | 58.57818 | -135.78874 | 25575 ft | 319 kts | 293° |
| 2026-04-26 19:33 | 58.58649 | -135.82854 | 25944 ft | 321 kts | 293° |
| 2026-04-26 19:33 | 58.59480 | -135.86840 | 26087 ft | 323 kts | 293° |
| 2026-04-26 19:33 | 58.60310 | -135.90831 | 26101 ft | 321 kts | 293° |
| 2026-04-26 19:34 | 58.61133 | -135.94793 | 26095 ft | 320 kts | 293° |
| 2026-04-26 19:34 | 58.61954 | -135.98756 | 26104 ft | 319 kts | 293° |
| 2026-04-26 19:34 | 58.62772 | -136.02711 | 26106 ft | 319 kts | 293° |
| 2026-04-26 19:34 | 58.63587 | -136.06659 | 26099 ft | 319 kts | 293° |
| 2026-04-26 19:35 | 58.64403 | -136.10621 | 26104 ft | 319 kts | 293° |
| 2026-04-26 19:35 | 58.65218 | -136.14584 | 26105 ft | 319 kts | 293° |
| 2026-04-26 19:35 | 58.66031 | -136.18544 | 26100 ft | 319 kts | 293° |
| 2026-04-26 19:35 | 58.66834 | -136.22459 | 26098 ft | 319 kts | 293° |
| 2026-04-26 19:36 | 58.67646 | -136.26434 | 26107 ft | 319 kts | 293° |
| 2026-04-26 19:36 | 58.68194 | -136.29120 | 26100 ft | 320 kts | 293° |
| 2026-04-26 19:36 | 58.69270 | -136.34395 | 26085 ft | 318 kts | 294° |
| 2026-04-26 19:36 | 58.70066 | -136.38294 | 26086 ft | 309 kts | 294° |
| 2026-04-26 19:37 | 58.70843 | -136.42102 | 26096 ft | 304 kts | 294° |
| 2026-04-26 19:37 | 58.71668 | -136.45854 | 26108 ft | 307 kts | 295° |
| 2026-04-26 19:37 | 58.72471 | -136.49779 | 26130 ft | 324 kts | 294° |
| 2026-04-26 19:37 | 58.73298 | -136.53935 | 26110 ft | 339 kts | 294° |
| 2026-04-26 19:38 | 58.74152 | -136.58210 | 26129 ft | 345 kts | 294° |
| 2026-04-26 19:38 | 58.75013 | -136.62518 | 26103 ft | 343 kts | 294° |
| 2026-04-26 19:38 | 58.75873 | -136.66816 | 26112 ft | 347 kts | 294° |
| 2026-04-26 19:38 | 58.76753 | -136.71202 | 26106 ft | 354 kts | 294° |
| 2026-04-26 19:39 | 58.77649 | -136.75668 | 26097 ft | 359 kts | 294° |
| 2026-04-26 19:39 | 58.78544 | -136.80142 | 26098 ft | 356 kts | 294° |
| 2026-04-26 19:39 | 58.79420 | -136.84528 | 26090 ft | 353 kts | 294° |
| 2026-04-26 19:39 | 58.80298 | -136.88935 | 26087 ft | 352 kts | 294° |
| 2026-04-26 19:40 | 58.81171 | -136.93319 | 26080 ft | 350 kts | 294° |
| 2026-04-26 19:40 | 58.82041 | -136.97696 | 26088 ft | 348 kts | 294° |
| 2026-04-26 19:40 | 58.82907 | -137.02060 | 26108 ft | 347 kts | 294° |
| 2026-04-26 19:40 | 58.83774 | -137.06439 | 26073 ft | 349 kts | 294° |
| 2026-04-26 19:41 | 58.84641 | -137.10819 | 26073 ft | 350 kts | 294° |
| 2026-04-26 19:41 | 58.85505 | -137.15195 | 26065 ft | 345 kts | 294° |
| 2026-04-26 19:41 | 58.86334 | -137.19432 | 26082 ft | 333 kts | 293° |
| 2026-04-26 19:41 | 58.86878 | -137.22220 | 26077 ft | 337 kts | 294° |
| 2026-04-26 19:42 | 58.88011 | -137.27953 | 26073 ft | 347 kts | 295° |
| 2026-04-26 19:42 | 58.88893 | -137.32295 | 26080 ft | 342 kts | 294° |
| 2026-04-26 19:42 | 58.89706 | -137.36503 | 26069 ft | 326 kts | 293° |
| 2026-04-26 19:42 | 58.90475 | -137.40523 | 25778 ft | 319 kts | 293° |
| 2026-04-26 19:43 | 58.91234 | -137.44496 | 25442 ft | 313 kts | 293° |
| 2026-04-26 19:43 | 58.91994 | -137.48418 | 25025 ft | 311 kts | 294° |
| 2026-04-26 19:43 | 58.92742 | -137.52311 | 24649 ft | 308 kts | 294° |
| 2026-04-26 19:43 | 58.93487 | -137.56195 | 24202 ft | 308 kts | 293° |
| 2026-04-26 19:44 | 58.94206 | -137.60093 | 23803 ft | 306 kts | 294° |
| 2026-04-26 19:44 | 58.94960 | -137.63949 | 23288 ft | 306 kts | 293° |
| 2026-04-26 19:44 | 58.95691 | -137.67825 | 22854 ft | 306 kts | 293° |
| 2026-04-26 19:44 | 58.96415 | -137.71675 | 22445 ft | 302 kts | 292° |
| 2026-04-26 19:45 | 58.97155 | -137.75485 | 21976 ft | 301 kts | 292° |
| 2026-04-26 19:45 | 58.97896 | -137.79275 | 21550 ft | 300 kts | 292° |
| 2026-04-26 19:45 | 58.98736 | -137.82935 | 21198 ft | 293 kts | 298° |
| 2026-04-26 19:45 | 58.99744 | -137.86305 | 20807 ft | 287 kts | 302° |
| 2026-04-26 19:46 | 59.00843 | -137.89541 | 20350 ft | 288 kts | 301° |
| 2026-04-26 19:46 | 59.01859 | -137.92909 | 19886 ft | 290 kts | 298° |
| 2026-04-26 19:46 | 59.02843 | -137.96328 | 19389 ft | 291 kts | 296° |
| 2026-04-26 19:46 | 59.03742 | -137.99916 | 18825 ft | 297 kts | 294° |
| 2026-04-26 19:47 | 59.04606 | -138.03530 | 18324 ft | 298 kts | 293° |
| 2026-04-26 19:47 | 59.05195 | -138.05995 | 17980 ft | 296 kts | 293° |
| 2026-04-26 19:47 | 59.06347 | -138.10786 | 17355 ft | 295 kts | 293° |
| 2026-04-26 19:47 | 59.07223 | -138.14410 | 16867 ft | 297 kts | 293° |
| 2026-04-26 19:48 | 59.08106 | -138.18038 | 16437 ft | 296 kts | 293° |
| 2026-04-26 19:48 | 59.08985 | -138.21655 | 16025 ft | 295 kts | 293° |
| 2026-04-26 19:48 | 59.09863 | -138.25267 | 15691 ft | 293 kts | 292° |
| 2026-04-26 19:48 | 59.10718 | -138.28784 | 15522 ft | 284 kts | 292° |
| 2026-04-26 19:49 | 59.11554 | -138.32236 | 15225 ft | 279 kts | 293° |
| 2026-04-26 19:49 | 59.12380 | -138.35649 | 14838 ft | 278 kts | 293° |
| 2026-04-26 19:49 | 59.13201 | -138.39040 | 14379 ft | 276 kts | 292° |
| 2026-04-26 19:49 | 59.14016 | -138.42414 | 13948 ft | 276 kts | 292° |
| 2026-04-26 19:50 | 59.14836 | -138.45820 | 13472 ft | 278 kts | 292° |
| 2026-04-26 19:50 | 59.15648 | -138.49197 | 12999 ft | 280 kts | 292° |
| 2026-04-26 19:50 | 59.16470 | -138.52617 | 12515 ft | 277 kts | 293° |
| 2026-04-26 19:50 | 59.17285 | -138.56016 | 12047 ft | 275 kts | 293° |
| 2026-04-26 19:51 | 59.18094 | -138.59390 | 11572 ft | 273 kts | 293° |
| 2026-04-26 19:51 | 59.18895 | -138.62738 | 11105 ft | 271 kts | 293° |
| 2026-04-26 19:51 | 59.19689 | -138.66065 | 10662 ft | 269 kts | 293° |
| 2026-04-26 19:51 | 59.20478 | -138.69372 | 10217 ft | 268 kts | 293° |
| 2026-04-26 19:52 | 59.21262 | -138.72665 | 9764 ft | 266 kts | 293° |
| 2026-04-26 19:52 | 59.22037 | -138.75926 | 9268 ft | 264 kts | 293° |
| 2026-04-26 19:52 | 59.22797 | -138.79130 | 8802 ft | 262 kts | 294° |
| 2026-04-26 19:52 | 59.23562 | -138.82356 | 8323 ft | 262 kts | 293° |
| 2026-04-26 19:53 | 59.24320 | -138.85558 | 8124 ft | 253 kts | 293° |
| 2026-04-26 19:53 | 59.25052 | -138.88656 | 7832 ft | 250 kts | 293° |
| 2026-04-26 19:53 | 59.25776 | -138.91726 | 7522 ft | 248 kts | 293° |
| 2026-04-26 19:53 | 59.26497 | -138.94785 | 7196 ft | 247 kts | 294° |
| 2026-04-26 19:54 | 59.27214 | -138.97833 | 6871 ft | 246 kts | 294° |
| 2026-04-26 19:54 | 59.27929 | -139.00876 | 6538 ft | 245 kts | 294° |
| 2026-04-26 19:54 | 59.28639 | -139.03906 | 6204 ft | 244 kts | 294° |
| 2026-04-26 19:54 | 59.29344 | -139.06916 | 5884 ft | 243 kts | 294° |
| 2026-04-26 19:55 | 59.30050 | -139.09932 | 5552 ft | 242 kts | 294° |
| 2026-04-26 19:55 | 59.30742 | -139.12893 | 5243 ft | 238 kts | 294° |
| 2026-04-26 19:55 | 59.31424 | -139.15819 | 4957 ft | 235 kts | 295° |
| 2026-04-26 19:55 | 59.32102 | -139.18732 | 4627 ft | 235 kts | 295° |
| 2026-04-26 19:56 | 59.32767 | -139.21592 | 4310 ft | 234 kts | 295° |
| 2026-04-26 19:56 | 59.33438 | -139.24472 | 3977 ft | 230 kts | 295° |
| 2026-04-26 19:56 | 59.34089 | -139.27270 | 3811 ft | 217 kts | 295° |
| 2026-04-26 19:56 | 59.34699 | -139.29908 | 3695 ft | 208 kts | 294° |
| 2026-04-26 19:57 | 59.35290 | -139.32466 | 3611 ft | 205 kts | 294° |
| 2026-04-26 19:57 | 59.35885 | -139.35035 | 3535 ft | 208 kts | 294° |
| 2026-04-26 19:57 | 59.36479 | -139.37560 | 3419 ft | 199 kts | 298° |
| 2026-04-26 19:57 | 59.37337 | -139.39578 | 3284 ft | 187 kts | 315° |
| 2026-04-26 19:58 | 59.38246 | -139.41296 | 3061 ft | 175 kts | 314° |
| 2026-04-26 19:58 | 59.39085 | -139.42903 | 2881 ft | 163 kts | 313° |
| 2026-04-26 19:58 | 59.39882 | -139.44436 | 2675 ft | 157 kts | 313° |
| 2026-04-26 19:58 | 59.40657 | -139.45938 | 2477 ft | 154 kts | 313° |
| 2026-04-26 19:59 | 59.41399 | -139.47381 | 2287 ft | 147 kts | 313° |
| 2026-04-26 19:59 | 59.42107 | -139.48760 | 2114 ft | 142 kts | 313° |
| 2026-04-26 19:59 | 59.42784 | -139.50077 | 1935 ft | 130 kts | 313° |
| 2026-04-26 19:59 | 59.43402 | -139.51280 | 1751 ft | 120 kts | 313° |
| 2026-04-26 20:00 | 59.43986 | -139.52420 | 1608 ft | 119 kts | 313° |
| 2026-04-26 20:00 | 59.44583 | -139.53593 | 1464 ft | 122 kts | 313° |
| 2026-04-26 20:00 | 59.45180 | -139.54759 | 1271 ft | 120 kts | 313° |
| 2026-04-26 20:00 | 59.45778 | -139.55926 | 1129 ft | 121 kts | 312° |
| 2026-04-26 20:01 | 59.46378 | -139.57106 | 965 ft | 121 kts | 312° |
| 2026-04-26 20:01 | 59.46969 | -139.58275 | 781 ft | 120 kts | 313° |
| 2026-04-26 20:01 | 59.47562 | -139.59437 | 644 ft | 120 kts | 311° |
| 2026-04-26 20:01 | 59.48156 | -139.60610 | 504 ft | 126 kts | 312° |
| 2026-04-26 20:02 | 59.48762 | -139.61826 | 361 ft | 124 kts | 313° |
| 2026-04-26 20:02 | 59.49370 | -139.63028 | 171 ft | 121 kts | 313° |
| 2026-04-26 20:02 | 59.49952 | -139.64175 | 49 ft | 111 kts | 313° |
| 2026-04-26 20:02 | 59.50267 | -139.64795 | 50 ft | 82 kts | 315° |
| 2026-04-26 20:03 | 59.50692 | -139.65627 | 52 ft | 48 kts | 315° |
| 2026-04-26 20:03 | 59.50862 | -139.65956 | 45 ft | 28 kts | 315° |
| 2026-04-26 20:03 | 59.50972 | -139.66175 | 46 ft | 13 kts | 314° |
| 2026-04-26 20:03 | 59.50972 | -139.66288 | 45 ft | 9 kts | 231° |
| 2026-04-26 20:04 | 59.50941 | -139.66352 | 48 ft | 6 kts | 226° |
| 2026-04-26 20:04 | 59.50914 | -139.66407 | 45 ft | 6 kts | 225° |
| 2026-04-26 20:04 | 59.50886 | -139.66460 | 47 ft | 5 kts | 224° |
| 2026-04-26 20:04 | 59.50876 | -139.66520 | 49 ft | 5 kts | 292° |
| 2026-04-26 20:05 | 59.50899 | -139.66573 | 46 ft | 5 kts | 314° |
| 2026-04-26 20:05 | 59.50924 | -139.66621 | 48 ft | 4 kts | 318° |
| 2026-04-26 20:05 | 59.50928 | -139.66628 | 48 ft | 1 kts | 319° |
| 2026-04-26 20:05 | 59.50931 | -139.66633 | 48 ft | 1 kts | 319° |
| 2026-04-26 20:06 | 59.50940 | -139.66649 | 48 ft | 3 kts | 319° |
| 2026-04-26 20:06 | 59.50961 | -139.66688 | 44 ft | 4 kts | 316° |
| 2026-04-26 20:06 | 59.50987 | -139.66677 | 48 ft | 5 kts | 45° |
| 2026-04-26 20:06 | 59.50993 | -139.66664 | 45 ft | 0 kts | 48° |